Indianapolis, Indiana
Traffic Map
Current Weather Conditions
Indianapolis, Indiana
Few Clouds
Few Clouds
23°
Feels Like: 23°
Wind Chill: 23° Ceiling: Unl
Heat Index: 23° Visibility: 10mi
Dew Point: Wind: 18mph
Humidity: 30% Direction: 240° (WSW)
Pressure: 29.81in Gusts: 28mph
Raw Report DataKIND 272154Z 24016G24KT 10SM FEW070 FEW250 23/04 A2981 RMK AO2 PK WND 24026/2142 SLP093 T02280044
Traffic Incident Summary
Active as of:
Severity:
Category:
InformationThere was an issue retrieving the traffic information for this location. Please try a different location or try again shortly.
Advertisements
Track Severe Weather on mobile